SWR2VC LSZH-EHAM
Flight info
| Callsign | SWR2VC |
|---|---|
| Flight time | 1h 5m |
| Altitude | 34000 |
| Route | VEBIT T51 LASUN T14 LUMEL T10 TORPA DCT EDOPI DCT GIVOR DCT SORAL DCT IBERA N853 DIK M624 BUB Y28 HELEN |
| Aircraft | A320/M-SDE3FGHIRWY/LB1 |
Departure
| Time | 2026-05-05 13:26 |
|---|---|
| Airport | Zürich Airport (LSZH) |
Arrival
| Time | 2026-05-05 14:31 |
|---|---|
| Airport | Amsterdam Airport Schiphol (EHAM) |
| Time | Latitude | Longitude | Altitude | Speed | Heading |
|---|---|---|---|---|---|
| 2026-05-05 12:59 | 47.44682 | 8.56584 | 1407 ft | 0 kts | 9° |
| 2026-05-05 13:15 | 47.44670 | 8.56581 | 1397 ft | 4 kts | 8° |
| 2026-05-05 13:16 | 47.44644 | 8.56576 | 1401 ft | 4 kts | 1° |
| 2026-05-05 13:16 | 47.44619 | 8.56581 | 1405 ft | 4 kts | 320° |
| 2026-05-05 13:16 | 47.44609 | 8.56583 | 1400 ft | 2 kts | 218° |
| 2026-05-05 13:16 | 47.44610 | 8.56584 | 1400 ft | 0 kts | 216° |
| 2026-05-05 13:18 | 47.44609 | 8.56583 | 1400 ft | 2 kts | 216° |
| 2026-05-05 13:18 | 47.44579 | 8.56531 | 1402 ft | 10 kts | 239° |
| 2026-05-05 13:19 | 47.44544 | 8.56424 | 1403 ft | 13 kts | 245° |
| 2026-05-05 13:19 | 47.44505 | 8.56297 | 1405 ft | 14 kts | 250° |
| 2026-05-05 13:19 | 47.44559 | 8.56197 | 1399 ft | 14 kts | 334° |
| 2026-05-05 13:19 | 47.44653 | 8.56133 | 1400 ft | 16 kts | 335° |
| 2026-05-05 13:20 | 47.44755 | 8.56062 | 1399 ft | 17 kts | 335° |
| 2026-05-05 13:20 | 47.44865 | 8.55987 | 1399 ft | 18 kts | 335° |
| 2026-05-05 13:20 | 47.44947 | 8.55869 | 1397 ft | 17 kts | 279° |
| 2026-05-05 13:20 | 47.45013 | 8.55731 | 1398 ft | 18 kts | 332° |
| 2026-05-05 13:21 | 47.45131 | 8.55649 | 1404 ft | 19 kts | 334° |
| 2026-05-05 13:21 | 47.45254 | 8.55566 | 1402 ft | 15 kts | 344° |
| 2026-05-05 13:21 | 47.45361 | 8.55518 | 1404 ft | 17 kts | 335° |
| 2026-05-05 13:21 | 47.45469 | 8.55443 | 1401 ft | 18 kts | 335° |
| 2026-05-05 13:22 | 47.45586 | 8.55364 | 1398 ft | 19 kts | 335° |
| 2026-05-05 13:22 | 47.45656 | 8.55367 | 1400 ft | 10 kts | 46° |
| 2026-05-05 13:22 | 47.45668 | 8.55448 | 1397 ft | 7 kts | 94° |
| 2026-05-05 13:22 | 47.45659 | 8.55564 | 1401 ft | 17 kts | 96° |
| 2026-05-05 13:23 | 47.45646 | 8.55754 | 1401 ft | 19 kts | 96° |
| 2026-05-05 13:23 | 47.45631 | 8.55960 | 1401 ft | 21 kts | 96° |
| 2026-05-05 13:23 | 47.45615 | 8.56182 | 1401 ft | 23 kts | 96° |
| 2026-05-05 13:23 | 47.45599 | 8.56422 | 1397 ft | 24 kts | 96° |
| 2026-05-05 13:24 | 47.45585 | 8.56619 | 1397 ft | 18 kts | 96° |
| 2026-05-05 13:24 | 47.45571 | 8.56808 | 1397 ft | 19 kts | 96° |
| 2026-05-05 13:24 | 47.45562 | 8.56930 | 1397 ft | 6 kts | 96° |
| 2026-05-05 13:24 | 47.45567 | 8.56981 | 1398 ft | 3 kts | 63° |
| 2026-05-05 13:25 | 47.45581 | 8.57001 | 1403 ft | 7 kts | 40° |
| 2026-05-05 13:25 | 47.45656 | 8.57009 | 1401 ft | 10 kts | 304° |
| 2026-05-05 13:25 | 47.45671 | 8.56884 | 1399 ft | 23 kts | 275° |
| 2026-05-05 13:25 | 47.45715 | 8.56247 | 1401 ft | 98 kts | 276° |
| 2026-05-05 13:26 | 47.45808 | 8.54949 | 1402 ft | 155 kts | 276° |
| 2026-05-05 13:26 | 47.45925 | 8.53308 | 1896 ft | 161 kts | 275° |
| 2026-05-05 13:26 | 47.46034 | 8.51644 | 2617 ft | 164 kts | 275° |
| 2026-05-05 13:26 | 47.46165 | 8.49907 | 3063 ft | 179 kts | 276° |
| 2026-05-05 13:27 | 47.46229 | 8.47996 | 3366 ft | 197 kts | 259° |
| 2026-05-05 13:27 | 47.45523 | 8.46190 | 3757 ft | 214 kts | 219° |
| 2026-05-05 13:27 | 47.44275 | 8.44957 | 4531 ft | 217 kts | 219° |
| 2026-05-05 13:27 | 47.43212 | 8.43387 | 5251 ft | 218 kts | 234° |
| 2026-05-05 13:28 | 47.42287 | 8.41508 | 5741 ft | 237 kts | 234° |
| 2026-05-05 13:28 | 47.41275 | 8.39423 | 6238 ft | 258 kts | 234° |
| 2026-05-05 13:28 | 47.40228 | 8.37239 | 7008 ft | 264 kts | 234° |
| 2026-05-05 13:28 | 47.39165 | 8.35002 | 7881 ft | 267 kts | 236° |
| 2026-05-05 13:29 | 47.38259 | 8.32608 | 8828 ft | 268 kts | 242° |
| 2026-05-05 13:29 | 47.37395 | 8.30179 | 9813 ft | 266 kts | 240° |
| 2026-05-05 13:29 | 47.36526 | 8.27741 | 10443 ft | 277 kts | 241° |
| 2026-05-05 13:29 | 47.35593 | 8.25127 | 10669 ft | 300 kts | 241° |
| 2026-05-05 13:30 | 47.34587 | 8.22319 | 11001 ft | 316 kts | 241° |
| 2026-05-05 13:30 | 47.33550 | 8.19416 | 11636 ft | 322 kts | 241° |
| 2026-05-05 13:30 | 47.32507 | 8.16484 | 12354 ft | 326 kts | 241° |
| 2026-05-05 13:30 | 47.31445 | 8.13499 | 13060 ft | 330 kts | 242° |
| 2026-05-05 13:31 | 47.30387 | 8.10524 | 13737 ft | 333 kts | 242° |
| 2026-05-05 13:31 | 47.29305 | 8.07481 | 14358 ft | 337 kts | 242° |
| 2026-05-05 13:31 | 47.28417 | 8.04265 | 14929 ft | 343 kts | 253° |
| 2026-05-05 13:31 | 47.28047 | 8.00760 | 15494 ft | 351 kts | 265° |
| 2026-05-05 13:32 | 47.28253 | 7.97131 | 16056 ft | 360 kts | 278° |
| 2026-05-05 13:32 | 47.29047 | 7.93600 | 16622 ft | 370 kts | 291° |
| 2026-05-05 13:32 | 47.30132 | 7.90140 | 17184 ft | 374 kts | 291° |
| 2026-05-05 13:32 | 47.31227 | 7.86640 | 17738 ft | 378 kts | 291° |
| 2026-05-05 13:33 | 47.32334 | 7.83092 | 18298 ft | 383 kts | 291° |
| 2026-05-05 13:33 | 47.33453 | 7.79502 | 18786 ft | 387 kts | 291° |
| 2026-05-05 13:33 | 47.34588 | 7.75853 | 19281 ft | 391 kts | 291° |
| 2026-05-05 13:33 | 47.35824 | 7.72268 | 19775 ft | 398 kts | 301° |
| 2026-05-05 13:34 | 47.37451 | 7.68940 | 20313 ft | 402 kts | 303° |
| 2026-05-05 13:34 | 47.39121 | 7.65598 | 20833 ft | 405 kts | 304° |
| 2026-05-05 13:34 | 47.40802 | 7.62250 | 21336 ft | 408 kts | 304° |
| 2026-05-05 13:34 | 47.42505 | 7.58859 | 21840 ft | 412 kts | 304° |
| 2026-05-05 13:35 | 47.44217 | 7.55443 | 22313 ft | 415 kts | 304° |
| 2026-05-05 13:35 | 47.45930 | 7.52009 | 22780 ft | 418 kts | 304° |
| 2026-05-05 13:35 | 47.47659 | 7.48528 | 23251 ft | 422 kts | 304° |
| 2026-05-05 13:35 | 47.49402 | 7.45010 | 23628 ft | 426 kts | 304° |
| 2026-05-05 13:36 | 47.51170 | 7.41445 | 23984 ft | 429 kts | 304° |
| 2026-05-05 13:36 | 47.52937 | 7.37885 | 24346 ft | 432 kts | 304° |
| 2026-05-05 13:36 | 47.54722 | 7.34284 | 24707 ft | 434 kts | 304° |
| 2026-05-05 13:36 | 47.56511 | 7.30668 | 25055 ft | 437 kts | 304° |
| 2026-05-05 13:37 | 47.58312 | 7.27024 | 25411 ft | 439 kts | 304° |
| 2026-05-05 13:37 | 47.60113 | 7.23372 | 25765 ft | 441 kts | 304° |
| 2026-05-05 13:37 | 47.61924 | 7.19697 | 26124 ft | 443 kts | 303° |
| 2026-05-05 13:37 | 47.63748 | 7.15987 | 26506 ft | 445 kts | 303° |
| 2026-05-05 13:38 | 47.65571 | 7.12270 | 26898 ft | 448 kts | 303° |
| 2026-05-05 13:38 | 47.67410 | 7.08513 | 27236 ft | 452 kts | 303° |
| 2026-05-05 13:38 | 47.69262 | 7.04731 | 27585 ft | 454 kts | 303° |
| 2026-05-05 13:38 | 47.71121 | 7.00935 | 27913 ft | 456 kts | 303° |
| 2026-05-05 13:39 | 47.72995 | 6.97109 | 28220 ft | 458 kts | 303° |
| 2026-05-05 13:39 | 47.74866 | 6.93285 | 28515 ft | 460 kts | 303° |
| 2026-05-05 13:39 | 47.76748 | 6.89424 | 28797 ft | 461 kts | 303° |
| 2026-05-05 13:39 | 47.78637 | 6.85540 | 29087 ft | 463 kts | 303° |
| 2026-05-05 13:40 | 47.80529 | 6.81645 | 29368 ft | 465 kts | 303° |
| 2026-05-05 13:40 | 47.82416 | 6.77756 | 29601 ft | 467 kts | 303° |
| 2026-05-05 13:40 | 47.84318 | 6.73828 | 29841 ft | 469 kts | 303° |
| 2026-05-05 13:40 | 47.86234 | 6.69872 | 30065 ft | 472 kts | 303° |
| 2026-05-05 13:41 | 47.88136 | 6.65951 | 30337 ft | 473 kts | 305° |
| 2026-05-05 13:41 | 47.90319 | 6.62284 | 30649 ft | 475 kts | 315° |
| 2026-05-05 13:41 | 47.92918 | 6.59228 | 30985 ft | 476 kts | 326° |
| 2026-05-05 13:41 | 47.95829 | 6.56903 | 31262 ft | 477 kts | 337° |
| 2026-05-05 13:42 | 47.98988 | 6.55385 | 31533 ft | 477 kts | 348° |
| 2026-05-05 13:42 | 48.02255 | 6.54552 | 31774 ft | 477 kts | 351° |
| 2026-05-05 13:42 | 48.05534 | 6.53778 | 32042 ft | 476 kts | 351° |
| 2026-05-05 13:42 | 48.08807 | 6.53000 | 32400 ft | 476 kts | 351° |
| 2026-05-05 13:43 | 48.12074 | 6.52224 | 32791 ft | 475 kts | 351° |
| 2026-05-05 13:43 | 48.15331 | 6.51444 | 33206 ft | 475 kts | 351° |
| 2026-05-05 13:43 | 48.18585 | 6.50657 | 33600 ft | 474 kts | 351° |
| 2026-05-05 13:43 | 48.21848 | 6.49867 | 33810 ft | 474 kts | 351° |
| 2026-05-05 13:44 | 48.28341 | 6.48290 | 33851 ft | 472 kts | 351° |
| 2026-05-05 13:44 | 48.34835 | 6.46714 | 33844 ft | 472 kts | 351° |
| 2026-05-05 13:45 | 48.41316 | 6.45152 | 33842 ft | 471 kts | 352° |
| 2026-05-05 13:45 | 48.47787 | 6.43575 | 33841 ft | 471 kts | 352° |
| 2026-05-05 13:46 | 48.54265 | 6.41984 | 33840 ft | 472 kts | 352° |
| 2026-05-05 13:46 | 48.60715 | 6.40403 | 33839 ft | 472 kts | 352° |
| 2026-05-05 13:47 | 48.67271 | 6.39315 | 33840 ft | 470 kts | 2° |
| 2026-05-05 13:47 | 48.73792 | 6.39923 | 33833 ft | 469 kts | 5° |
| 2026-05-05 13:48 | 48.80270 | 6.40590 | 33836 ft | 469 kts | 5° |
| 2026-05-05 13:48 | 48.86774 | 6.41262 | 33855 ft | 469 kts | 5° |
| 2026-05-05 13:49 | 48.93291 | 6.41924 | 33848 ft | 470 kts | 5° |
| 2026-05-05 13:49 | 48.99828 | 6.42586 | 33850 ft | 471 kts | 6° |
| 2026-05-05 13:50 | 49.06371 | 6.43257 | 33847 ft | 471 kts | 6° |
| 2026-05-05 13:50 | 49.12924 | 6.42990 | 33838 ft | 474 kts | 351° |
| 2026-05-05 13:51 | 49.19333 | 6.40502 | 33823 ft | 476 kts | 345° |
| 2026-05-05 13:51 | 49.25749 | 6.37864 | 33810 ft | 478 kts | 345° |
| 2026-05-05 13:52 | 49.32185 | 6.35231 | 33818 ft | 479 kts | 345° |
| 2026-05-05 13:52 | 49.38631 | 6.32580 | 33821 ft | 480 kts | 345° |
| 2026-05-05 13:53 | 49.45088 | 6.29902 | 33829 ft | 482 kts | 345° |
| 2026-05-05 13:53 | 49.51568 | 6.27202 | 33857 ft | 483 kts | 345° |
| 2026-05-05 13:54 | 49.56967 | 6.24972 | 33871 ft | 482 kts | 345° |
| 2026-05-05 13:54 | 49.64541 | 6.21882 | 33847 ft | 483 kts | 345° |
| 2026-05-05 13:55 | 49.69949 | 6.19665 | 33845 ft | 483 kts | 345° |
| 2026-05-05 13:55 | 49.76462 | 6.16984 | 33839 ft | 484 kts | 345° |
| 2026-05-05 13:56 | 49.82928 | 6.14046 | 33832 ft | 484 kts | 336° |
| 2026-05-05 13:56 | 49.88702 | 6.08893 | 33826 ft | 478 kts | 318° |
| 2026-05-05 13:57 | 49.93567 | 6.01936 | 33816 ft | 475 kts | 313° |
| 2026-05-05 13:57 | 49.98352 | 5.94828 | 33813 ft | 476 kts | 313° |
| 2026-05-05 13:58 | 50.03126 | 5.87700 | 33849 ft | 474 kts | 313° |
| 2026-05-05 13:58 | 50.07857 | 5.80594 | 33868 ft | 472 kts | 313° |
| 2026-05-05 13:59 | 50.14925 | 5.69968 | 33856 ft | 470 kts | 312° |
| 2026-05-05 14:00 | 50.21937 | 5.59377 | 33856 ft | 469 kts | 312° |
| 2026-05-05 14:00 | 50.26622 | 5.52291 | 33862 ft | 468 kts | 312° |
| 2026-05-05 14:01 | 50.31278 | 5.45205 | 33883 ft | 466 kts | 313° |
| 2026-05-05 14:01 | 50.35916 | 5.38127 | 33879 ft | 465 kts | 313° |
| 2026-05-05 14:02 | 50.40549 | 5.31050 | 33879 ft | 464 kts | 313° |
| 2026-05-05 14:02 | 50.45162 | 5.23976 | 33879 ft | 464 kts | 312° |
| 2026-05-05 14:03 | 50.49761 | 5.16894 | 33877 ft | 463 kts | 312° |
| 2026-05-05 14:03 | 50.54365 | 5.09788 | 33893 ft | 463 kts | 312° |
| 2026-05-05 14:04 | 50.58959 | 5.02687 | 33893 ft | 462 kts | 312° |
| 2026-05-05 14:04 | 50.63542 | 4.95591 | 33891 ft | 462 kts | 312° |
| 2026-05-05 14:05 | 50.68111 | 4.88485 | 33890 ft | 461 kts | 312° |
| 2026-05-05 14:05 | 50.72678 | 4.81361 | 33882 ft | 461 kts | 312° |
| 2026-05-05 14:06 | 50.77233 | 4.74256 | 33873 ft | 461 kts | 312° |
| 2026-05-05 14:06 | 50.81792 | 4.67118 | 33899 ft | 461 kts | 312° |
| 2026-05-05 14:07 | 50.84072 | 4.63532 | 33640 ft | 463 kts | 312° |
| 2026-05-05 14:07 | 50.86356 | 4.59932 | 33364 ft | 464 kts | 312° |
| 2026-05-05 14:07 | 50.88640 | 4.56317 | 33094 ft | 464 kts | 310° |
| 2026-05-05 14:07 | 50.90707 | 4.52417 | 32832 ft | 461 kts | 302° |
| 2026-05-05 14:08 | 50.92434 | 4.48150 | 32551 ft | 459 kts | 298° |
| 2026-05-05 14:08 | 50.94104 | 4.43819 | 31614 ft | 464 kts | 298° |
| 2026-05-05 14:08 | 50.95773 | 4.39483 | 30826 ft | 464 kts | 298° |
| 2026-05-05 14:08 | 50.97440 | 4.35156 | 30293 ft | 457 kts | 298° |
| 2026-05-05 14:09 | 50.99088 | 4.30876 | 29623 ft | 454 kts | 298° |
| 2026-05-05 14:09 | 51.00742 | 4.26578 | 29005 ft | 448 kts | 298° |
| 2026-05-05 14:09 | 51.02341 | 4.22423 | 28413 ft | 443 kts | 298° |
| 2026-05-05 14:09 | 51.03935 | 4.18266 | 27842 ft | 438 kts | 298° |
| 2026-05-05 14:10 | 51.05513 | 4.14140 | 27259 ft | 434 kts | 298° |
| 2026-05-05 14:10 | 51.07068 | 4.10068 | 26676 ft | 430 kts | 298° |
| 2026-05-05 14:10 | 51.08683 | 4.06069 | 26111 ft | 428 kts | 304° |
| 2026-05-05 14:10 | 51.10639 | 4.02517 | 25527 ft | 427 kts | 314° |
| 2026-05-05 14:11 | 51.12936 | 3.99516 | 24972 ft | 426 kts | 322° |
| 2026-05-05 14:11 | 51.15315 | 3.96732 | 24401 ft | 423 kts | 322° |
| 2026-05-05 14:11 | 51.17670 | 3.93959 | 23850 ft | 420 kts | 322° |
| 2026-05-05 14:11 | 51.20012 | 3.91214 | 23295 ft | 418 kts | 324° |
| 2026-05-05 14:12 | 51.22547 | 3.88960 | 22758 ft | 415 kts | 336° |
| 2026-05-05 14:12 | 51.25271 | 3.87495 | 22264 ft | 411 kts | 347° |
| 2026-05-05 14:12 | 51.28082 | 3.86870 | 21797 ft | 407 kts | 358° |
| 2026-05-05 14:12 | 51.30899 | 3.86804 | 21322 ft | 403 kts | 359° |
| 2026-05-05 14:13 | 51.33696 | 3.86752 | 20851 ft | 399 kts | 359° |
| 2026-05-05 14:13 | 51.36464 | 3.86694 | 20385 ft | 396 kts | 359° |
| 2026-05-05 14:13 | 51.39209 | 3.86630 | 19902 ft | 394 kts | 360° |
| 2026-05-05 14:13 | 51.41941 | 3.86560 | 19424 ft | 391 kts | 360° |
| 2026-05-05 14:14 | 51.44653 | 3.86490 | 18924 ft | 389 kts | 360° |
| 2026-05-05 14:14 | 51.47354 | 3.86422 | 18436 ft | 388 kts | 0° |
| 2026-05-05 14:14 | 51.50052 | 3.86357 | 17889 ft | 387 kts | 0° |
| 2026-05-05 14:14 | 51.52732 | 3.86292 | 17377 ft | 384 kts | 360° |
| 2026-05-05 14:15 | 51.55391 | 3.86226 | 16886 ft | 380 kts | 360° |
| 2026-05-05 14:15 | 51.58027 | 3.86161 | 16388 ft | 378 kts | 0° |
| 2026-05-05 14:15 | 51.60649 | 3.86098 | 15897 ft | 375 kts | 0° |
| 2026-05-05 14:15 | 51.63252 | 3.86121 | 15216 ft | 376 kts | 7° |
| 2026-05-05 14:16 | 51.65778 | 3.87214 | 14647 ft | 373 kts | 26° |
| 2026-05-05 14:16 | 51.67970 | 3.89352 | 14123 ft | 369 kts | 36° |
| 2026-05-05 14:16 | 51.70050 | 3.91730 | 13771 ft | 362 kts | 37° |
| 2026-05-05 14:16 | 51.72050 | 3.94079 | 13260 ft | 358 kts | 37° |
| 2026-05-05 14:17 | 51.74076 | 3.96488 | 12619 ft | 358 kts | 37° |
| 2026-05-05 14:17 | 51.76039 | 3.98836 | 12103 ft | 355 kts | 37° |
| 2026-05-05 14:17 | 51.78017 | 4.01199 | 11599 ft | 351 kts | 37° |
| 2026-05-05 14:17 | 51.79969 | 4.03526 | 11090 ft | 347 kts | 37° |
| 2026-05-05 14:18 | 51.81906 | 4.05830 | 10612 ft | 344 kts | 37° |
| 2026-05-05 14:18 | 51.83815 | 4.08095 | 10326 ft | 335 kts | 36° |
| 2026-05-05 14:18 | 51.85655 | 4.10271 | 10202 ft | 321 kts | 36° |
| 2026-05-05 14:18 | 51.87422 | 4.12363 | 10063 ft | 309 kts | 37° |
| 2026-05-05 14:19 | 51.89121 | 4.14378 | 9958 ft | 297 kts | 37° |
| 2026-05-05 14:19 | 51.90771 | 4.16343 | 9698 ft | 291 kts | 37° |
| 2026-05-05 14:19 | 51.92397 | 4.18284 | 9270 ft | 291 kts | 37° |
| 2026-05-05 14:19 | 51.94020 | 4.20224 | 8912 ft | 288 kts | 37° |
| 2026-05-05 14:20 | 51.95631 | 4.22150 | 8479 ft | 288 kts | 37° |
| 2026-05-05 14:20 | 51.97236 | 4.24070 | 8075 ft | 286 kts | 36° |
| 2026-05-05 14:20 | 51.98839 | 4.25988 | 7640 ft | 286 kts | 36° |
| 2026-05-05 14:20 | 52.00427 | 4.27891 | 7270 ft | 283 kts | 36° |
| 2026-05-05 14:21 | 52.02013 | 4.29797 | 6876 ft | 282 kts | 36° |
| 2026-05-05 14:21 | 52.03559 | 4.31653 | 6512 ft | 279 kts | 36° |
| 2026-05-05 14:21 | 52.05132 | 4.33547 | 6112 ft | 277 kts | 36° |
| 2026-05-05 14:21 | 52.06656 | 4.35381 | 5708 ft | 275 kts | 37° |
| 2026-05-05 14:22 | 52.08179 | 4.37213 | 5361 ft | 270 kts | 37° |
| 2026-05-05 14:22 | 52.09681 | 4.39019 | 4991 ft | 267 kts | 36° |
| 2026-05-05 14:22 | 52.11168 | 4.40807 | 4634 ft | 263 kts | 37° |
| 2026-05-05 14:22 | 52.12619 | 4.42553 | 4407 ft | 254 kts | 37° |
| 2026-05-05 14:23 | 52.14010 | 4.44234 | 4192 ft | 245 kts | 37° |
| 2026-05-05 14:23 | 52.15349 | 4.45856 | 3976 ft | 236 kts | 37° |
| 2026-05-05 14:23 | 52.16647 | 4.47425 | 3738 ft | 229 kts | 37° |
| 2026-05-05 14:23 | 52.17900 | 4.48944 | 3514 ft | 221 kts | 37° |
| 2026-05-05 14:24 | 52.19118 | 4.50420 | 3291 ft | 215 kts | 37° |
| 2026-05-05 14:24 | 52.20387 | 4.51653 | 3068 ft | 212 kts | 17° |
| 2026-05-05 14:24 | 52.21837 | 4.51607 | 2835 ft | 213 kts | 342° |
| 2026-05-05 14:24 | 52.23003 | 4.50178 | 2615 ft | 214 kts | 307° |
| 2026-05-05 14:25 | 52.23433 | 4.47906 | 2490 ft | 211 kts | 270° |
| 2026-05-05 14:25 | 52.22971 | 4.45691 | 2358 ft | 207 kts | 231° |
| 2026-05-05 14:25 | 52.21814 | 4.44388 | 2220 ft | 202 kts | 190° |
| 2026-05-05 14:25 | 52.20466 | 4.44451 | 2119 ft | 193 kts | 156° |
| 2026-05-05 14:26 | 52.19367 | 4.45591 | 2036 ft | 187 kts | 126° |
| 2026-05-05 14:26 | 52.18798 | 4.47410 | 2002 ft | 176 kts | 90° |
| 2026-05-05 14:26 | 52.19161 | 4.49134 | 2057 ft | 162 kts | 44° |
| 2026-05-05 14:26 | 52.19935 | 4.50463 | 2011 ft | 162 kts | 55° |
| 2026-05-05 14:27 | 52.20511 | 4.51978 | 2011 ft | 153 kts | 56° |
| 2026-05-05 14:27 | 52.21076 | 4.53441 | 2009 ft | 149 kts | 56° |
| 2026-05-05 14:27 | 52.21628 | 4.54864 | 2003 ft | 148 kts | 56° |
| 2026-05-05 14:27 | 52.22178 | 4.56286 | 2005 ft | 148 kts | 55° |
| 2026-05-05 14:28 | 52.22727 | 4.57704 | 2006 ft | 148 kts | 55° |
| 2026-05-05 14:28 | 52.23268 | 4.59101 | 1991 ft | 148 kts | 55° |
| 2026-05-05 14:28 | 52.23818 | 4.60523 | 1870 ft | 148 kts | 56° |
| 2026-05-05 14:28 | 52.24368 | 4.61944 | 1697 ft | 147 kts | 55° |
| 2026-05-05 14:29 | 52.24894 | 4.63307 | 1519 ft | 137 kts | 56° |
| 2026-05-05 14:29 | 52.25392 | 4.64596 | 1330 ft | 135 kts | 55° |
| 2026-05-05 14:29 | 52.25897 | 4.65903 | 1141 ft | 136 kts | 55° |
| 2026-05-05 14:29 | 52.26402 | 4.67211 | 964 ft | 137 kts | 55° |
| 2026-05-05 14:30 | 52.26904 | 4.68521 | 784 ft | 135 kts | 54° |
| 2026-05-05 14:30 | 52.27413 | 4.69826 | 583 ft | 136 kts | 54° |
| 2026-05-05 14:30 | 52.27917 | 4.71129 | 412 ft | 135 kts | 56° |
| 2026-05-05 14:30 | 52.28416 | 4.72437 | 236 ft | 136 kts | 56° |
| 2026-05-05 14:31 | 52.28925 | 4.73757 | 37 ft | 137 kts | 56° |
| 2026-05-05 14:31 | 52.29384 | 4.74942 | -2 ft | 102 kts | 58° |
| 2026-05-05 14:31 | 52.29667 | 4.75692 | -2 ft | 53 kts | 58° |
| 2026-05-05 14:31 | 52.29825 | 4.76103 | -4 ft | 41 kts | 58° |
| 2026-05-05 14:32 | 52.29962 | 4.76447 | -3 ft | 25 kts | 53° |
| 2026-05-05 14:32 | 52.30095 | 4.76596 | -2 ft | 23 kts | 27° |
| 2026-05-05 14:32 | 52.30212 | 4.76696 | -1 ft | 18 kts | 27° |
| 2026-05-05 14:32 | 52.30307 | 4.76739 | -1 ft | 14 kts | 344° |
| 2026-05-05 14:33 | 52.30352 | 4.76617 | -1 ft | 13 kts | 279° |
| 2026-05-05 14:33 | 52.30365 | 4.76511 | -1 ft | 6 kts | 278° |
| 2026-05-05 14:33 | 52.30357 | 4.76466 | -1 ft | 2 kts | 239° |
| 2026-05-05 14:33 | 52.30349 | 4.76446 | -1 ft | 2 kts | 237° |
| 2026-05-05 14:34 | 52.30345 | 4.76434 | -1 ft | 1 kts | 237° |
| 2026-05-05 14:34 | 52.30342 | 4.76427 | -1 ft | 0 kts | 238° |